Terminal Aerodrome Forecast
Issued by NWS Pueblo, CO

Home | Current Version | Previous Version | Text Only | Print | Product List | Glossary On
Versions: 1 2 3 4 5 6 7 8 9 10 11 12 13 14 15 16 17 18 19 20 21 22 23 24 25 26 27 28 29 30 31 32 33 34 35 36 37 38 39 40 41
000
FTUS45 KPUB 012321
TAFALS
TAF
KALS 012321Z 0200/0224 11016KT P6SM VCSH SCT035 OVC060
     FM020300 10008KT P6SM SCT035 BKN060
     FM020700 VRB04KT P6SM SCT060 BKN100
     FM021500 VRB05KT P6SM SCT100
     FM021900 15008KT P6SM SCT100 SCT150=

USA.gov is the U.S. government's official web portal to all federal, state and local government web resources and services.